sensor_id;sensor_type;location;lat;lon;timestamp;P1;durP1;ratioP1;P2;durP2;ratioP2
12970;SDS011;6550;48.650;8.774;2022-11-20T00:01:21;3.93;;;1.30;;
12970;SDS011;6550;48.650;8.774;2022-11-20T00:03:53;2.07;;;1.33;;
12970;SDS011;6550;48.650;8.774;2022-11-20T00:06:23;2.20;;;1.43;;
12970;SDS011;6550;48.650;8.774;2022-11-20T00:08:53;1.50;;;1.30;;
12970;SDS011;6550;48.650;8.774;2022-11-20T00:11:25;1.30;;;1.20;;
12970;SDS011;6550;48.650;8.774;2022-11-20T00:13:56;1.40;;;1.20;;
12970;SDS011;6550;48.650;8.774;2022-11-20T00:16:25;1.60;;;1.43;;
12970;SDS011;6550;48.650;8.774;2022-11-20T00:18:53;1.48;;;1.38;;
12970;SDS011;6550;48.650;8.774;2022-11-20T00:21:21;1.17;;;1.07;;
12970;SDS011;6550;48.650;8.774;2022-11-20T00:23:50;1.50;;;1.40;;
12970;SDS011;6550;48.650;8.774;2022-11-20T00:26:22;1.50;;;1.40;;
12970;SDS011;6550;48.650;8.774;2022-11-20T00:28:53;1.50;;;1.27;;
12970;SDS011;6550;48.650;8.774;2022-11-20T00:31:21;1.30;;;1.20;;
12970;SDS011;6550;48.650;8.774;2022-11-20T00:33:48;1.53;;;1.30;;
12970;SDS011;6550;48.650;8.774;2022-11-20T00:36:18;1.27;;;1.17;;
12970;SDS011;6550;48.650;8.774;2022-11-20T00:38:50;1.07;;;1.07;;
12970;SDS011;6550;48.650;8.774;2022-11-20T00:41:20;1.57;;;1.30;;
12970;SDS011;6550;48.650;8.774;2022-11-20T00:43:54;1.17;;;1.07;;
12970;SDS011;6550;48.650;8.774;2022-11-20T00:46:27;1.20;;;1.10;;
12970;SDS011;6550;48.650;8.774;2022-11-20T00:48:54;1.30;;;1.20;;
12970;SDS011;6550;48.650;8.774;2022-11-20T00:51:22;1.20;;;1.10;;
12970;SDS011;6550;48.650;8.774;2022-11-20T00:53:51;1.30;;;1.20;;
12970;SDS011;6550;48.650;8.774;2022-11-20T00:56:18;1.30;;;1.20;;
12970;SDS011;6550;48.650;8.774;2022-11-20T00:58:48;1.23;;;1.13;;
12970;SDS011;6550;48.650;8.774;2022-11-20T01:01:16;1.53;;;1.20;;
12970;SDS011;6550;48.650;8.774;2022-11-20T01:03:51;1.53;;;1.40;;
12970;SDS011;6550;48.650;8.774;2022-11-20T01:08:50;1.17;;;1.10;;
12970;SDS011;6550;48.650;8.774;2022-11-20T01:11:31;0.93;;;0.93;;
12970;SDS011;6550;48.650;8.774;2022-11-20T01:14:01;1.33;;;1.17;;
12970;SDS011;6550;48.650;8.774;2022-11-20T01:16:37;1.40;;;1.10;;
12970;SDS011;6550;48.650;8.774;2022-11-20T01:19:06;1.40;;;1.30;;
12970;SDS011;6550;48.650;8.774;2022-11-20T01:21:43;1.93;;;1.17;;
12970;SDS011;6550;48.650;8.774;2022-11-20T01:24:12;1.90;;;1.20;;
12970;SDS011;6550;48.650;8.774;2022-11-20T01:26:41;1.30;;;1.20;;
12970;SDS011;6550;48.650;8.774;2022-11-20T01:29:13;3.90;;;1.50;;
12970;SDS011;6550;48.650;8.774;2022-11-20T01:31:41;1.40;;;1.30;;
12970;SDS011;6550;48.650;8.774;2022-11-20T01:34:13;1.47;;;1.37;;
12970;SDS011;6550;48.650;8.774;2022-11-20T01:36:42;1.30;;;1.20;;
12970;SDS011;6550;48.650;8.774;2022-11-20T01:39:13;0.90;;;0.90;;
12970;SDS011;6550;48.650;8.774;2022-11-20T01:41:44;1.17;;;1.10;;
12970;SDS011;6550;48.650;8.774;2022-11-20T01:47:08;4.20;;;1.33;;
12970;SDS011;6550;48.650;8.774;2022-11-20T01:49:42;1.60;;;1.20;;
12970;SDS011;6550;48.650;8.774;2022-11-20T01:52:17;1.20;;;1.10;;
12970;SDS011;6550;48.650;8.774;2022-11-20T01:54:54;1.10;;;1.10;;
12970;SDS011;6550;48.650;8.774;2022-11-20T01:57:24;1.30;;;1.20;;
12970;SDS011;6550;48.650;8.774;2022-11-20T01:59:58;1.30;;;1.20;;
12970;SDS011;6550;48.650;8.774;2022-11-20T02:02:31;1.23;;;1.13;;
12970;SDS011;6550;48.650;8.774;2022-11-20T02:05:00;1.20;;;1.10;;
12970;SDS011;6550;48.650;8.774;2022-11-20T02:07:35;1.03;;;1.03;;
12970;SDS011;6550;48.650;8.774;2022-11-20T02:10:05;1.30;;;1.20;;
12970;SDS011;6550;48.650;8.774;2022-11-20T02:12:37;1.60;;;1.10;;
12970;SDS011;6550;48.650;8.774;2022-11-20T02:15:24;0.93;;;0.93;;
12970;SDS011;6550;48.650;8.774;2022-11-20T02:17:55;1.20;;;1.10;;
12970;SDS011;6550;48.650;8.774;2022-11-20T02:20:24;1.30;;;1.20;;
12970;SDS011;6550;48.650;8.774;2022-11-20T02:22:54;1.43;;;1.30;;
12970;SDS011;6550;48.650;8.774;2022-11-20T02:25:26;1.50;;;1.20;;
12970;SDS011;6550;48.650;8.774;2022-11-20T02:27:57;2.00;;;1.13;;
12970;SDS011;6550;48.650;8.774;2022-11-20T02:30:26;1.10;;;1.00;;
12970;SDS011;6550;48.650;8.774;2022-11-20T02:32:57;1.33;;;1.10;;
12970;SDS011;6550;48.650;8.774;2022-11-20T02:37:53;1.00;;;0.90;;
12970;SDS011;6550;48.650;8.774;2022-11-20T02:40:21;1.30;;;1.20;;
12970;SDS011;6550;48.650;8.774;2022-11-20T02:42:55;1.87;;;1.30;;
12970;SDS011;6550;48.650;8.774;2022-11-20T02:45:24;1.47;;;1.10;;
12970;SDS011;6550;48.650;8.774;2022-11-20T02:47:51;1.93;;;1.30;;
12970;SDS011;6550;48.650;8.774;2022-11-20T02:50:18;1.63;;;1.10;;
12970;SDS011;6550;48.650;8.774;2022-11-20T02:52:45;1.20;;;1.10;;
12970;SDS011;6550;48.650;8.774;2022-11-20T02:55:12;1.40;;;1.30;;
12970;SDS011;6550;48.650;8.774;2022-11-20T02:57:41;1.17;;;1.10;;
12970;SDS011;6550;48.650;8.774;2022-11-20T03:00:08;1.10;;;1.03;;
12970;SDS011;6550;48.650;8.774;2022-11-20T03:02:38;1.10;;;1.00;;
12970;SDS011;6550;48.650;8.774;2022-11-20T03:05:06;1.20;;;1.10;;
12970;SDS011;6550;48.650;8.774;2022-11-20T03:07:34;1.17;;;1.07;;
12970;SDS011;6550;48.650;8.774;2022-11-20T03:10:01;3.60;;;1.13;;
12970;SDS011;6550;48.650;8.774;2022-11-20T03:12:32;1.10;;;1.10;;
12970;SDS011;6550;48.650;8.774;2022-11-20T03:14:59;2.00;;;1.35;;
12970;SDS011;6550;48.650;8.774;2022-11-20T03:17:31;1.20;;;1.10;;
12970;SDS011;6550;48.650;8.774;2022-11-20T03:20:03;1.20;;;1.20;;
12970;SDS011;6550;48.650;8.774;2022-11-20T03:22:32;1.27;;;1.20;;
12970;SDS011;6550;48.650;8.774;2022-11-20T03:25:01;1.30;;;1.20;;
12970;SDS011;6550;48.650;8.774;2022-11-20T03:27:34;1.43;;;1.33;;
12970;SDS011;6550;48.650;8.774;2022-11-20T03:30:03;1.50;;;1.40;;
12970;SDS011;6550;48.650;8.774;2022-11-20T03:32:33;1.40;;;1.30;;
12970;SDS011;6550;48.650;8.774;2022-11-20T03:35:02;0.97;;;0.97;;
12970;SDS011;6550;48.650;8.774;2022-11-20T03:37:28;1.47;;;1.37;;
12970;SDS011;6550;48.650;8.774;2022-11-20T03:39:57;1.37;;;1.27;;
12970;SDS011;6550;48.650;8.774;2022-11-20T03:42:26;1.30;;;1.20;;
12970;SDS011;6550;48.650;8.774;2022-11-20T03:45:14;1.37;;;1.27;;
12970;SDS011;6550;48.650;8.774;2022-11-20T03:47:45;1.40;;;1.30;;
12970;SDS011;6550;48.650;8.774;2022-11-20T03:50:14;1.40;;;1.30;;
12970;SDS011;6550;48.650;8.774;2022-11-20T03:52:43;1.23;;;1.13;;
12970;SDS011;6550;48.650;8.774;2022-11-20T03:55:12;1.30;;;1.20;;
12970;SDS011;6550;48.650;8.774;2022-11-20T03:57:39;1.50;;;0.97;;
12970;SDS011;6550;48.650;8.774;2022-11-20T04:00:08;1.30;;;1.17;;
12970;SDS011;6550;48.650;8.774;2022-11-20T04:02:35;1.33;;;1.23;;
12970;SDS011;6550;48.650;8.774;2022-11-20T04:05:02;1.50;;;1.40;;
12970;SDS011;6550;48.650;8.774;2022-11-20T04:07:33;1.30;;;1.20;;
12970;SDS011;6550;48.650;8.774;2022-11-20T04:10:00;1.27;;;1.13;;
12970;SDS011;6550;48.650;8.774;2022-11-20T04:12:26;1.30;;;1.20;;
12970;SDS011;6550;48.650;8.774;2022-11-20T04:14:53;1.30;;;1.20;;
12970;SDS011;6550;48.650;8.774;2022-11-20T04:17:20;1.20;;;1.10;;
12970;SDS011;6550;48.650;8.774;2022-11-20T04:19:46;1.42;;;1.33;;
12970;SDS011;6550;48.650;8.774;2022-11-20T04:22:13;1.37;;;1.20;;
12970;SDS011;6550;48.650;8.774;2022-11-20T04:24:40;2.63;;;1.27;;
12970;SDS011;6550;48.650;8.774;2022-11-20T04:27:07;1.40;;;1.20;;
12970;SDS011;6550;48.650;8.774;2022-11-20T04:29:38;1.33;;;1.23;;
12970;SDS011;6550;48.650;8.774;2022-11-20T04:32:05;1.00;;;0.93;;
12970;SDS011;6550;48.650;8.774;2022-11-20T04:34:34;1.30;;;1.20;;
12970;SDS011;6550;48.650;8.774;2022-11-20T04:37:03;1.33;;;1.23;;
12970;SDS011;6550;48.650;8.774;2022-11-20T04:39:34;1.40;;;1.30;;
12970;SDS011;6550;48.650;8.774;2022-11-20T04:42:01;1.20;;;1.10;;
12970;SDS011;6550;48.650;8.774;2022-11-20T04:44:46;1.20;;;1.10;;
12970;SDS011;6550;48.650;8.774;2022-11-20T04:47:15;1.33;;;1.23;;
12970;SDS011;6550;48.650;8.774;2022-11-20T04:49:44;1.63;;;1.20;;
12970;SDS011;6550;48.650;8.774;2022-11-20T04:52:11;1.43;;;1.33;;
12970;SDS011;6550;48.650;8.774;2022-11-20T04:54:38;1.40;;;1.30;;
12970;SDS011;6550;48.650;8.774;2022-11-20T04:57:06;2.00;;;1.30;;
12970;SDS011;6550;48.650;8.774;2022-11-20T04:59:39;1.40;;;1.30;;
12970;SDS011;6550;48.650;8.774;2022-11-20T05:02:11;1.20;;;1.10;;
12970;SDS011;6550;48.650;8.774;2022-11-20T05:04:40;2.00;;;1.33;;
12970;SDS011;6550;48.650;8.774;2022-11-20T05:07:09;4.83;;;1.37;;
12970;SDS011;6550;48.650;8.774;2022-11-20T05:09:38;1.57;;;1.37;;
12970;SDS011;6550;48.650;8.774;2022-11-20T05:12:06;1.40;;;1.30;;
12970;SDS011;6550;48.650;8.774;2022-11-20T05:14:34;1.77;;;1.47;;
12970;SDS011;6550;48.650;8.774;2022-11-20T05:17:03;1.50;;;1.40;;
12970;SDS011;6550;48.650;8.774;2022-11-20T05:19:32;1.50;;;1.40;;
12970;SDS011;6550;48.650;8.774;2022-11-20T05:22:01;1.47;;;1.23;;
12970;SDS011;6550;48.650;8.774;2022-11-20T05:24:28;1.57;;;1.47;;
12970;SDS011;6550;48.650;8.774;2022-11-20T05:26:54;1.13;;;1.07;;
12970;SDS011;6550;48.650;8.774;2022-11-20T05:29:26;1.20;;;1.10;;
12970;SDS011;6550;48.650;8.774;2022-11-20T05:31:54;1.17;;;1.10;;
12970;SDS011;6550;48.650;8.774;2022-11-20T05:34:21;1.33;;;1.23;;
12970;SDS011;6550;48.650;8.774;2022-11-20T05:36:50;1.40;;;1.30;;
12970;SDS011;6550;48.650;8.774;2022-11-20T05:39:17;1.40;;;1.30;;
12970;SDS011;6550;48.650;8.774;2022-11-20T05:41:44;1.50;;;1.40;;
12970;SDS011;6550;48.650;8.774;2022-11-20T05:44:11;1.30;;;1.20;;
12970;SDS011;6550;48.650;8.774;2022-11-20T05:46:37;1.20;;;1.10;;
12970;SDS011;6550;48.650;8.774;2022-11-20T05:49:09;1.40;;;1.30;;
12970;SDS011;6550;48.650;8.774;2022-11-20T05:51:40;1.30;;;1.20;;
12970;SDS011;6550;48.650;8.774;2022-11-20T05:54:07;1.50;;;1.30;;
12970;SDS011;6550;48.650;8.774;2022-11-20T05:56:36;1.48;;;1.38;;
12970;SDS011;6550;48.650;8.774;2022-11-20T05:59:05;1.60;;;1.23;;
12970;SDS011;6550;48.650;8.774;2022-11-20T06:01:31;1.60;;;1.30;;
12970;SDS011;6550;48.650;8.774;2022-11-20T06:03:58;1.37;;;1.27;;
12970;SDS011;6550;48.650;8.774;2022-11-20T06:06:27;1.40;;;1.30;;
12970;SDS011;6550;48.650;8.774;2022-11-20T06:08:54;1.30;;;1.20;;
12970;SDS011;6550;48.650;8.774;2022-11-20T06:11:24;1.50;;;1.40;;
12970;SDS011;6550;48.650;8.774;2022-11-20T06:13:51;1.30;;;1.10;;
12970;SDS011;6550;48.650;8.774;2022-11-20T06:16:18;1.37;;;1.20;;
12970;SDS011;6550;48.650;8.774;2022-11-20T06:18:48;1.23;;;1.13;;
12970;SDS011;6550;48.650;8.774;2022-11-20T06:21:16;1.13;;;1.07;;
12970;SDS011;6550;48.650;8.774;2022-11-20T06:23:45;1.57;;;1.30;;
12970;SDS011;6550;48.650;8.774;2022-11-20T06:26:19;1.40;;;1.30;;
12970;SDS011;6550;48.650;8.774;2022-11-20T06:28:50;1.20;;;1.10;;
12970;SDS011;6550;48.650;8.774;2022-11-20T06:31:21;2.50;;;1.40;;
12970;SDS011;6550;48.650;8.774;2022-11-20T06:33:51;2.37;;;1.40;;
12970;SDS011;6550;48.650;8.774;2022-11-20T06:36:19;1.43;;;1.30;;
12970;SDS011;6550;48.650;8.774;2022-11-20T06:38:47;1.30;;;1.20;;
12970;SDS011;6550;48.650;8.774;2022-11-20T06:41:18;1.83;;;1.40;;
12970;SDS011;6550;48.650;8.774;2022-11-20T06:43:48;1.40;;;1.30;;
12970;SDS011;6550;48.650;8.774;2022-11-20T06:46:16;1.60;;;1.50;;
12970;SDS011;6550;48.650;8.774;2022-11-20T06:48:44;1.80;;;1.53;;
12970;SDS011;6550;48.650;8.774;2022-11-20T06:51:17;1.50;;;1.40;;
12970;SDS011;6550;48.650;8.774;2022-11-20T06:53:44;1.97;;;1.40;;
12970;SDS011;6550;48.650;8.774;2022-11-20T06:56:15;1.50;;;1.40;;
12970;SDS011;6550;48.650;8.774;2022-11-20T06:58:42;1.70;;;1.30;;
12970;SDS011;6550;48.650;8.774;2022-11-20T07:01:12;1.30;;;1.20;;
12970;SDS011;6550;48.650;8.774;2022-11-20T07:03:44;1.57;;;1.37;;
12970;SDS011;6550;48.650;8.774;2022-11-20T07:06:16;1.60;;;1.50;;
12970;SDS011;6550;48.650;8.774;2022-11-20T07:08:45;1.80;;;1.50;;
12970;SDS011;6550;48.650;8.774;2022-11-20T07:11:13;1.50;;;1.40;;
12970;SDS011;6550;48.650;8.774;2022-11-20T07:13:44;1.70;;;1.60;;
12970;SDS011;6550;48.650;8.774;2022-11-20T07:16:11;2.28;;;1.80;;
12970;SDS011;6550;48.650;8.774;2022-11-20T07:18:37;1.77;;;1.67;;
12970;SDS011;6550;48.650;8.774;2022-11-20T07:21:06;1.57;;;1.47;;
12970;SDS011;6550;48.650;8.774;2022-11-20T07:23:34;2.13;;;1.80;;
12970;SDS011;6550;48.650;8.774;2022-11-20T07:26:04;1.60;;;1.50;;
12970;SDS011;6550;48.650;8.774;2022-11-20T07:28:32;2.37;;;1.87;;
12970;SDS011;6550;48.650;8.774;2022-11-20T07:31:04;1.70;;;1.60;;
12970;SDS011;6550;48.650;8.774;2022-11-20T07:33:33;1.70;;;1.60;;
12970;SDS011;6550;48.650;8.774;2022-11-20T07:36:02;2.00;;;1.80;;
12970;SDS011;6550;48.650;8.774;2022-11-20T07:38:29;2.10;;;1.77;;
12970;SDS011;6550;48.650;8.774;2022-11-20T07:40:56;2.20;;;2.00;;
12970;SDS011;6550;48.650;8.774;2022-11-20T07:43:24;2.20;;;2.00;;
12970;SDS011;6550;48.650;8.774;2022-11-20T07:45:51;2.60;;;2.40;;
12970;SDS011;6550;48.650;8.774;2022-11-20T07:48:20;2.77;;;2.10;;
12970;SDS011;6550;48.650;8.774;2022-11-20T07:50:52;1.83;;;1.70;;
12970;SDS011;6550;48.650;8.774;2022-11-20T07:53:19;2.53;;;2.33;;
12970;SDS011;6550;48.650;8.774;2022-11-20T07:55:47;3.73;;;2.20;;
12970;SDS011;6550;48.650;8.774;2022-11-20T07:58:14;2.93;;;2.47;;
12970;SDS011;6550;48.650;8.774;2022-11-20T08:00:43;1.83;;;1.73;;
12970;SDS011;6550;48.650;8.774;2022-11-20T08:03:10;2.00;;;1.83;;
12970;SDS011;6550;48.650;8.774;2022-11-20T08:05:36;2.50;;;2.30;;
12970;SDS011;6550;48.650;8.774;2022-11-20T08:08:03;2.30;;;2.10;;
12970;SDS011;6550;48.650;8.774;2022-11-20T08:10:30;2.77;;;2.03;;
12970;SDS011;6550;48.650;8.774;2022-11-20T08:12:57;1.40;;;1.30;;
12970;SDS011;6550;48.650;8.774;2022-11-20T08:15:47;3.43;;;2.17;;
12970;SDS011;6550;48.650;8.774;2022-11-20T08:18:16;3.58;;;2.60;;
12970;SDS011;6550;48.650;8.774;2022-11-20T08:21:04;2.97;;;2.30;;
12970;SDS011;6550;48.650;8.774;2022-11-20T08:23:33;5.47;;;2.70;;
12970;SDS011;6550;48.650;8.774;2022-11-20T08:26:00;4.90;;;2.30;;
12970;SDS011;6550;48.650;8.774;2022-11-20T08:28:29;3.60;;;2.60;;
12970;SDS011;6550;48.650;8.774;2022-11-20T08:30:59;3.57;;;2.87;;
12970;SDS011;6550;48.650;8.774;2022-11-20T08:33:27;3.23;;;2.93;;
12970;SDS011;6550;48.650;8.774;2022-11-20T08:35:58;4.43;;;2.80;;
12970;SDS011;6550;48.650;8.774;2022-11-20T08:38:29;3.43;;;3.00;;
12970;SDS011;6550;48.650;8.774;2022-11-20T08:41:00;3.40;;;2.90;;
12970;SDS011;6550;48.650;8.774;2022-11-20T08:43:47;3.97;;;2.90;;
12970;SDS011;6550;48.650;8.774;2022-11-20T08:46:14;3.60;;;3.00;;
12970;SDS011;6550;48.650;8.774;2022-11-20T08:48:42;3.40;;;3.10;;
12970;SDS011;6550;48.650;8.774;2022-11-20T08:51:11;2.60;;;2.40;;
12970;SDS011;6550;48.650;8.774;2022-11-20T08:53:38;3.33;;;2.70;;
12970;SDS011;6550;48.650;8.774;2022-11-20T08:56:11;3.78;;;2.90;;
12970;SDS011;6550;48.650;8.774;2022-11-20T08:58:38;4.53;;;2.70;;
12970;SDS011;6550;48.650;8.774;2022-11-20T09:01:25;3.73;;;2.73;;
12970;SDS011;6550;48.650;8.774;2022-11-20T09:03:54;3.80;;;3.07;;
12970;SDS011;6550;48.650;8.774;2022-11-20T09:06:22;3.20;;;2.80;;
12970;SDS011;6550;48.650;8.774;2022-11-20T09:08:52;5.27;;;2.70;;
12970;SDS011;6550;48.650;8.774;2022-11-20T09:11:19;3.00;;;2.60;;
12970;SDS011;6550;48.650;8.774;2022-11-20T09:13:46;3.10;;;2.80;;
12970;SDS011;6550;48.650;8.774;2022-11-20T09:16:15;2.80;;;2.47;;
12970;SDS011;6550;48.650;8.774;2022-11-20T09:18:41;2.60;;;2.30;;
12970;SDS011;6550;48.650;8.774;2022-11-20T09:21:09;2.50;;;2.30;;
12970;SDS011;6550;48.650;8.774;2022-11-20T09:23:40;3.00;;;2.30;;
12970;SDS011;6550;48.650;8.774;2022-11-20T09:26:14;4.73;;;2.37;;
12970;SDS011;6550;48.650;8.774;2022-11-20T09:28:43;2.90;;;2.60;;
12970;SDS011;6550;48.650;8.774;2022-11-20T09:31:30;2.93;;;2.00;;
12970;SDS011;6550;48.650;8.774;2022-11-20T09:33:57;3.45;;;2.60;;
12970;SDS011;6550;48.650;8.774;2022-11-20T09:36:24;2.70;;;2.50;;
12970;SDS011;6550;48.650;8.774;2022-11-20T09:38:50;2.73;;;2.40;;
12970;SDS011;6550;48.650;8.774;2022-11-20T09:44:13;2.87;;;2.20;;
12970;SDS011;6550;48.650;8.774;2022-11-20T09:54:51;4.40;;;2.27;;
12970;SDS011;6550;48.650;8.774;2022-11-20T09:57:21;5.07;;;2.40;;
12970;SDS011;6550;48.650;8.774;2022-11-20T09:59:56;2.93;;;2.50;;
12970;SDS011;6550;48.650;8.774;2022-11-20T10:02:35;2.17;;;2.00;;
12970;SDS011;6550;48.650;8.774;2022-11-20T10:05:16;2.60;;;2.30;;
12970;SDS011;6550;48.650;8.774;2022-11-20T10:07:47;2.40;;;2.13;;
12970;SDS011;6550;48.650;8.774;2022-11-20T10:10:25;2.93;;;2.53;;
12970;SDS011;6550;48.650;8.774;2022-11-20T10:16:07;2.53;;;2.20;;
12970;SDS011;6550;48.650;8.774;2022-11-20T10:30:22;3.13;;;2.47;;
12970;SDS011;6550;48.650;8.774;2022-11-20T10:33:03;2.97;;;2.70;;
12970;SDS011;6550;48.650;8.774;2022-11-20T10:35:41;4.43;;;2.40;;
12970;SDS011;6550;48.650;8.774;2022-11-20T10:38:20;4.87;;;2.90;;
12970;SDS011;6550;48.650;8.774;2022-11-20T10:40:52;4.43;;;2.77;;
12970;SDS011;6550;48.650;8.774;2022-11-20T10:43:42;3.60;;;2.80;;
12970;SDS011;6550;48.650;8.774;2022-11-20T10:46:12;4.40;;;2.80;;
12970;SDS011;6550;48.650;8.774;2022-11-20T10:48:45;3.10;;;2.80;;
12970;SDS011;6550;48.650;8.774;2022-11-20T10:53:44;3.43;;;2.80;;
12970;SDS011;6550;48.650;8.774;2022-11-20T10:56:34;3.43;;;2.87;;
12970;SDS011;6550;48.650;8.774;2022-11-20T11:01:57;5.93;;;3.33;;
12970;SDS011;6550;48.650;8.774;2022-11-20T11:07:12;3.17;;;2.80;;
12970;SDS011;6550;48.650;8.774;2022-11-20T11:09:49;3.60;;;3.10;;
12970;SDS011;6550;48.650;8.774;2022-11-20T11:12:19;4.53;;;2.97;;
12970;SDS011;6550;48.650;8.774;2022-11-20T11:14:51;3.10;;;2.63;;
12970;SDS011;6550;48.650;8.774;2022-11-20T11:17:32;3.77;;;2.77;;
12970;SDS011;6550;48.650;8.774;2022-11-20T11:20:18;3.20;;;2.63;;
12970;SDS011;6550;48.650;8.774;2022-11-20T11:22:53;3.93;;;2.80;;
12970;SDS011;6550;48.650;8.774;2022-11-20T11:27:54;3.07;;;2.77;;
12970;SDS011;6550;48.650;8.774;2022-11-20T11:30:25;3.10;;;2.50;;
12970;SDS011;6550;48.650;8.774;2022-11-20T11:33:04;2.83;;;2.40;;
12970;SDS011;6550;48.650;8.774;2022-11-20T11:35:52;3.57;;;2.50;;
12970;SDS011;6550;48.650;8.774;2022-11-20T11:38:34;2.57;;;2.37;;
12970;SDS011;6550;48.650;8.774;2022-11-20T11:41:08;2.97;;;2.30;;
12970;SDS011;6550;48.650;8.774;2022-11-20T11:43:40;3.10;;;2.40;;
12970;SDS011;6550;48.650;8.774;2022-11-20T11:46:49;2.53;;;2.23;;
12970;SDS011;6550;48.650;8.774;2022-11-20T11:49:20;3.97;;;2.33;;
12970;SDS011;6550;48.650;8.774;2022-11-20T11:51:58;3.07;;;2.30;;
12970;SDS011;6550;48.650;8.774;2022-11-20T11:57:28;3.33;;;2.20;;
12970;SDS011;6550;48.650;8.774;2022-11-20T12:00:10;2.20;;;2.00;;
12970;SDS011;6550;48.650;8.774;2022-11-20T12:15:59;2.23;;;1.90;;
12970;SDS011;6550;48.650;8.774;2022-11-20T12:18:30;2.90;;;1.83;;
12970;SDS011;6550;48.650;8.774;2022-11-20T12:26:45;4.03;;;2.10;;
12970;SDS011;6550;48.650;8.774;2022-11-20T12:29:38;4.07;;;2.33;;
12970;SDS011;6550;48.650;8.774;2022-11-20T12:43:10;4.07;;;2.20;;
12970;SDS011;6550;48.650;8.774;2022-11-20T12:55:21;2.33;;;1.70;;
12970;SDS011;6550;48.650;8.774;2022-11-20T13:00:26;3.67;;;2.20;;
12970;SDS011;6550;48.650;8.774;2022-11-20T13:02:59;2.40;;;1.70;;
12970;SDS011;6550;48.650;8.774;2022-11-20T13:08:41;4.97;;;2.60;;
12970;SDS011;6550;48.650;8.774;2022-11-20T13:19:54;6.57;;;3.80;;
12970;SDS011;6550;48.650;8.774;2022-11-20T13:22:28;7.80;;;4.87;;
12970;SDS011;6550;48.650;8.774;2022-11-20T13:25:31;9.23;;;4.17;;
12970;SDS011;6550;48.650;8.774;2022-11-20T13:28:24;7.77;;;4.17;;
12970;SDS011;6550;48.650;8.774;2022-11-20T13:30:58;8.43;;;4.90;;
12970;SDS011;6550;48.650;8.774;2022-11-20T13:36:00;6.23;;;4.50;;
12970;SDS011;6550;48.650;8.774;2022-11-20T13:38:40;7.93;;;5.40;;
12970;SDS011;6550;48.650;8.774;2022-11-20T13:41:11;8.50;;;5.10;;
12970;SDS011;6550;48.650;8.774;2022-11-20T13:46:41;9.40;;;4.97;;
12970;SDS011;6550;48.650;8.774;2022-11-20T13:51:50;7.17;;;5.00;;
12970;SDS011;6550;48.650;8.774;2022-11-20T13:54:22;8.40;;;4.93;;
12970;SDS011;6550;48.650;8.774;2022-11-20T14:00:02;8.73;;;4.47;;
12970;SDS011;6550;48.650;8.774;2022-11-20T14:02:37;7.63;;;4.27;;
12970;SDS011;6550;48.650;8.774;2022-11-20T14:05:04;4.27;;;3.50;;
12970;SDS011;6550;48.650;8.774;2022-11-20T14:07:34;6.20;;;3.77;;
12970;SDS011;6550;48.650;8.774;2022-11-20T14:10:18;4.67;;;3.33;;
12970;SDS011;6550;48.650;8.774;2022-11-20T14:12:49;4.93;;;4.00;;
12970;SDS011;6550;48.650;8.774;2022-11-20T14:18:10;5.53;;;3.43;;
12970;SDS011;6550;48.650;8.774;2022-11-20T14:20:45;6.50;;;3.90;;
12970;SDS011;6550;48.650;8.774;2022-11-20T14:23:12;5.20;;;3.77;;
12970;SDS011;6550;48.650;8.774;2022-11-20T14:25:55;5.30;;;3.70;;
12970;SDS011;6550;48.650;8.774;2022-11-20T14:28:28;5.57;;;3.97;;
12970;SDS011;6550;48.650;8.774;2022-11-20T14:30:56;5.73;;;4.07;;
12970;SDS011;6550;48.650;8.774;2022-11-20T14:33:24;6.50;;;3.97;;
12970;SDS011;6550;48.650;8.774;2022-11-20T14:35:52;5.23;;;4.30;;
12970;SDS011;6550;48.650;8.774;2022-11-20T14:38:29;6.20;;;4.20;;
12970;SDS011;6550;48.650;8.774;2022-11-20T14:41:16;5.57;;;4.10;;
12970;SDS011;6550;48.650;8.774;2022-11-20T14:43:45;6.30;;;3.83;;
12970;SDS011;6550;48.650;8.774;2022-11-20T14:46:13;5.85;;;4.13;;
12970;SDS011;6550;48.650;8.774;2022-11-20T14:51:12;7.57;;;4.50;;
12970;SDS011;6550;48.650;8.774;2022-11-20T14:54:20;11.67;;;5.23;;
12970;SDS011;6550;48.650;8.774;2022-11-20T14:56:55;10.63;;;4.43;;
12970;SDS011;6550;48.650;8.774;2022-11-20T14:59:27;9.70;;;4.67;;
12970;SDS011;6550;48.650;8.774;2022-11-20T15:02:00;8.90;;;4.87;;
12970;SDS011;6550;48.650;8.774;2022-11-20T15:04:44;9.03;;;5.50;;
12970;SDS011;6550;48.650;8.774;2022-11-20T15:07:28;8.83;;;5.57;;
12970;SDS011;6550;48.650;8.774;2022-11-20T15:10:10;7.07;;;4.73;;
12970;SDS011;6550;48.650;8.774;2022-11-20T15:12:49;8.00;;;4.33;;
12970;SDS011;6550;48.650;8.774;2022-11-20T15:15:24;6.73;;;4.63;;
12970;SDS011;6550;48.650;8.774;2022-11-20T15:17:54;8.30;;;5.27;;
12970;SDS011;6550;48.650;8.774;2022-11-20T15:20:21;7.47;;;5.15;;
12970;SDS011;6550;48.650;8.774;2022-11-20T15:22:56;7.97;;;5.33;;
12970;SDS011;6550;48.650;8.774;2022-11-20T15:25:23;9.37;;;4.83;;
12970;SDS011;6550;48.650;8.774;2022-11-20T15:27:59;7.93;;;5.13;;
12970;SDS011;6550;48.650;8.774;2022-11-20T15:30:26;7.53;;;5.27;;
12970;SDS011;6550;48.650;8.774;2022-11-20T15:32:55;7.80;;;5.30;;
12970;SDS011;6550;48.650;8.774;2022-11-20T15:35:22;6.67;;;5.27;;
12970;SDS011;6550;48.650;8.774;2022-11-20T15:37:48;9.55;;;6.07;;
12970;SDS011;6550;48.650;8.774;2022-11-20T15:40:15;10.97;;;7.60;;
12970;SDS011;6550;48.650;8.774;2022-11-20T15:42:42;10.63;;;7.47;;
12970;SDS011;6550;48.650;8.774;2022-11-20T15:45:38;10.10;;;7.57;;
12970;SDS011;6550;48.650;8.774;2022-11-20T15:48:14;9.20;;;6.60;;
12970;SDS011;6550;48.650;8.774;2022-11-20T15:53:40;8.63;;;7.03;;
12970;SDS011;6550;48.650;8.774;2022-11-20T15:56:13;9.40;;;6.90;;
12970;SDS011;6550;48.650;8.774;2022-11-20T15:58:42;8.57;;;7.07;;
12970;SDS011;6550;48.650;8.774;2022-11-20T16:01:10;7.87;;;6.17;;
12970;SDS011;6550;48.650;8.774;2022-11-20T16:03:39;10.40;;;6.53;;
12970;SDS011;6550;48.650;8.774;2022-11-20T16:06:08;7.67;;;6.37;;
12970;SDS011;6550;48.650;8.774;2022-11-20T16:08:35;7.57;;;5.93;;
12970;SDS011;6550;48.650;8.774;2022-11-20T16:11:02;7.67;;;5.87;;
12970;SDS011;6550;48.650;8.774;2022-11-20T16:13:30;7.47;;;6.30;;
12970;SDS011;6550;48.650;8.774;2022-11-20T16:16:23;7.30;;;5.47;;
12970;SDS011;6550;48.650;8.774;2022-11-20T16:18:56;7.40;;;5.60;;
12970;SDS011;6550;48.650;8.774;2022-11-20T16:21:26;6.10;;;4.93;;
12970;SDS011;6550;48.650;8.774;2022-11-20T16:23:59;6.40;;;5.03;;
12970;SDS011;6550;48.650;8.774;2022-11-20T16:26:27;7.57;;;5.30;;
12970;SDS011;6550;48.650;8.774;2022-11-20T16:28:58;7.13;;;4.97;;
12970;SDS011;6550;48.650;8.774;2022-11-20T16:31:25;7.00;;;5.35;;
12970;SDS011;6550;48.650;8.774;2022-11-20T16:33:55;7.43;;;5.23;;
12970;SDS011;6550;48.650;8.774;2022-11-20T16:36:23;7.47;;;5.50;;
12970;SDS011;6550;48.650;8.774;2022-11-20T16:38:52;6.87;;;5.37;;
12970;SDS011;6550;48.650;8.774;2022-11-20T16:41:20;6.73;;;5.10;;
12970;SDS011;6550;48.650;8.774;2022-11-20T16:43:50;8.60;;;6.10;;
12970;SDS011;6550;48.650;8.774;2022-11-20T16:46:19;7.27;;;5.87;;
12970;SDS011;6550;48.650;8.774;2022-11-20T16:48:57;6.87;;;5.57;;
12970;SDS011;6550;48.650;8.774;2022-11-20T16:51:28;6.80;;;5.23;;
12970;SDS011;6550;48.650;8.774;2022-11-20T16:53:56;7.60;;;5.07;;
12970;SDS011;6550;48.650;8.774;2022-11-20T16:56:26;5.70;;;4.57;;
12970;SDS011;6550;48.650;8.774;2022-11-20T16:58:56;6.37;;;4.87;;
12970;SDS011;6550;48.650;8.774;2022-11-20T17:01:24;6.93;;;5.50;;
12970;SDS011;6550;48.650;8.774;2022-11-20T17:03:57;5.63;;;4.60;;
12970;SDS011;6550;48.650;8.774;2022-11-20T17:06:27;6.88;;;5.25;;
12970;SDS011;6550;48.650;8.774;2022-11-20T17:08:55;5.10;;;4.60;;
12970;SDS011;6550;48.650;8.774;2022-11-20T17:11:22;5.10;;;4.60;;
12970;SDS011;6550;48.650;8.774;2022-11-20T17:13:50;7.07;;;4.80;;
12970;SDS011;6550;48.650;8.774;2022-11-20T17:16:18;5.30;;;4.80;;
12970;SDS011;6550;48.650;8.774;2022-11-20T17:18:49;5.40;;;4.67;;
12970;SDS011;6550;48.650;8.774;2022-11-20T17:21:17;4.70;;;3.80;;
12970;SDS011;6550;48.650;8.774;2022-11-20T17:23:44;4.60;;;3.97;;
12970;SDS011;6550;48.650;8.774;2022-11-20T17:26:22;3.97;;;3.30;;